createdAt,value
2018-04-14T00:02:20.783Z,2.60
2018-04-14T00:04:49.799Z,2.60
2018-04-14T00:07:18.916Z,2.50
2018-04-14T00:09:48.500Z,2.50
2018-04-14T00:12:17.595Z,2.50
2018-04-14T00:14:46.542Z,2.50
2018-04-14T00:17:15.260Z,2.40
2018-04-14T00:19:43.949Z,2.40
2018-04-14T00:22:12.641Z,2.30
2018-04-14T00:24:41.833Z,2.40
2018-04-14T00:27:10.850Z,2.40
2018-04-14T00:29:39.867Z,2.40
2018-04-14T00:32:08.608Z,2.40
2018-04-14T00:34:37.196Z,2.30
2018-04-14T00:37:05.994Z,2.30
2018-04-14T00:39:34.758Z,2.30
2018-04-14T00:42:03.773Z,2.30
2018-04-14T00:44:32.817Z,2.20
2018-04-14T00:47:01.650Z,2.20
2018-04-14T00:49:30.700Z,2.10
2018-04-14T00:51:59.839Z,2.10
2018-04-14T00:54:28.934Z,2.00
2018-04-14T00:56:58.000Z,2.10
2018-04-14T00:59:26.667Z,2.00
2018-04-14T01:01:55.659Z,2.00
2018-04-14T01:04:24.497Z,2.00
2018-04-14T01:06:53.917Z,1.90
2018-04-14T01:09:23.098Z,1.90
2018-04-14T01:11:52.053Z,1.90
2018-04-14T01:14:20.880Z,1.90
2018-04-14T01:16:49.885Z,1.80
2018-04-14T01:19:19.071Z,1.80
2018-04-14T01:21:48.167Z,1.80
2018-04-14T01:24:17.183Z,1.70
2018-04-14T01:26:45.947Z,1.70
2018-04-14T01:29:15.021Z,1.60
2018-04-14T01:31:44.085Z,1.70
2018-04-14T01:34:12.821Z,1.60
2018-04-14T01:36:41.769Z,1.60
2018-04-14T01:39:10.887Z,1.60
2018-04-14T01:41:40.108Z,1.60
2018-04-14T01:44:09.120Z,1.60
2018-04-14T01:46:38.298Z,1.60
2018-04-14T01:49:07.397Z,1.60
2018-04-14T01:51:36.419Z,1.60
2018-04-14T01:54:05.993Z,1.50
2018-04-14T01:56:35.090Z,1.60
2018-04-14T01:59:04.093Z,1.60
2018-04-14T02:01:33.282Z,1.60
2018-04-14T02:04:01.950Z,1.50
2018-04-14T02:06:30.651Z,1.50
2018-04-14T02:08:59.746Z,1.50
2018-04-14T02:11:28.878Z,1.50
2018-04-14T02:13:57.937Z,1.40
2018-04-14T02:16:27.033Z,1.50
2018-04-14T02:18:56.001Z,1.40
2018-04-14T02:21:24.718Z,1.40
2018-04-14T02:23:53.909Z,1.40
2018-04-14T02:26:23.003Z,1.40
2018-04-14T02:28:52.016Z,1.30
2018-04-14T02:31:20.687Z,1.40
2018-04-14T02:33:49.884Z,1.30
2018-04-14T02:36:18.894Z,1.30
2018-04-14T02:38:47.557Z,1.20
2018-04-14T02:41:16.678Z,1.20
2018-04-14T02:43:45.854Z,1.20
2018-04-14T02:46:14.939Z,1.20
2018-04-14T02:48:43.956Z,1.20
2018-04-14T02:51:12.727Z,1.10
2018-04-14T02:53:41.824Z,1.10
2018-04-14T02:56:10.825Z,1.10
2018-04-14T02:58:39.504Z,1.10
2018-04-14T03:01:08.697Z,1.00
2018-04-14T03:03:37.705Z,1.00
2018-04-14T03:06:06.717Z,1.00
2018-04-14T03:08:35.460Z,1.00
2018-04-14T03:11:04.203Z,1.00
2018-04-14T03:13:32.922Z,1.00
2018-04-14T03:16:01.449Z,1.00
2018-04-14T03:18:30.129Z,1.00
2018-04-14T03:20:58.893Z,1.00
2018-04-14T03:23:27.591Z,1.00
2018-04-14T03:25:56.781Z,0.90
2018-04-14T03:28:25.844Z,0.90
2018-04-14T03:30:54.537Z,0.90
2018-04-14T03:33:23.576Z,1.00
2018-04-14T03:35:52.241Z,0.90
2018-04-14T03:38:21.359Z,0.90
2018-04-14T03:40:50.032Z,0.80
2018-04-14T03:43:18.791Z,0.90
2018-04-14T03:45:48.235Z,0.90
2018-04-14T03:48:16.763Z,0.90
2018-04-14T03:50:45.691Z,0.90
2018-04-14T03:53:14.709Z,0.80
2018-04-14T03:55:43.878Z,0.90
2018-04-14T03:58:12.544Z,0.80
2018-04-14T04:00:41.252Z,0.90
2018-04-14T04:03:10.347Z,0.90
2018-04-14T04:05:39.719Z,0.90
2018-04-14T04:08:08.461Z,0.90
2018-04-14T04:10:37.152Z,0.90
2018-04-14T04:13:06.317Z,0.90
2018-04-14T04:15:35.307Z,1.00
2018-04-14T04:18:03.974Z,1.00
2018-04-14T04:20:56.045Z,1.00
2018-04-14T04:23:36.584Z,1.00
2018-04-14T04:26:07.401Z,1.10
2018-04-14T04:28:36.040Z,1.10
2018-04-14T04:31:04.707Z,1.10
2018-04-14T04:33:34.223Z,1.10
2018-04-14T04:36:03.808Z,1.20
2018-04-14T04:38:34.132Z,1.20
2018-04-14T04:41:03.636Z,1.30
2018-04-14T04:43:32.964Z,1.30
2018-04-14T04:46:01.783Z,1.20
2018-04-14T04:48:30.423Z,1.30
2018-04-14T04:51:00.431Z,1.30
2018-04-14T04:53:29.115Z,1.30
2018-04-14T04:55:57.698Z,1.40
2018-04-14T04:58:26.484Z,1.40
2018-04-14T05:00:55.989Z,1.40
2018-04-14T05:03:24.675Z,1.40
2018-04-14T05:05:53.360Z,1.50
2018-04-14T05:08:22.047Z,1.50
2018-04-14T05:10:51.552Z,1.60
2018-04-14T05:13:20.334Z,1.60
2018-04-14T05:15:49.208Z,1.60
2018-04-14T05:18:18.018Z,1.60
2018-04-14T05:20:48.344Z,1.70
2018-04-14T05:23:16.931Z,1.80
2018-04-14T05:25:45.600Z,1.80
2018-04-14T05:28:14.402Z,1.90
2018-04-14T05:30:44.532Z,2.80
2018-04-14T05:33:12.781Z,2.80
2018-04-14T05:35:41.275Z,3.30
2018-04-14T05:38:09.881Z,3.70
2018-04-14T05:40:39.827Z,4.30
2018-04-14T05:43:08.152Z,4.20
2018-04-14T05:45:36.837Z,4.40
2018-04-14T05:48:05.424Z,4.80
2018-04-14T05:50:33.819Z,5.00
2018-04-14T05:53:02.409Z,5.10
2018-04-14T05:55:32.329Z,5.30
2018-04-14T05:58:00.879Z,5.30
2018-04-14T06:00:29.331Z,5.20
2018-04-14T06:02:58.046Z,4.90
2018-04-14T06:05:27.551Z,4.50
2018-04-14T06:07:58.209Z,4.30
2018-04-14T06:10:26.875Z,4.30
2018-04-14T06:12:56.420Z,4.10
2018-04-14T06:15:24.984Z,4.10
2018-04-14T06:17:53.398Z,4.00
2018-04-14T06:20:22.119Z,4.00
2018-04-14T06:22:50.600Z,4.00
2018-04-14T06:25:19.400Z,4.10
2018-04-14T06:27:47.990Z,4.00
2018-04-14T06:30:16.453Z,4.10
2018-04-14T06:32:45.155Z,4.10
2018-04-14T06:35:13.743Z,4.10
2018-04-14T06:37:43.331Z,4.10
2018-04-14T06:40:11.605Z,4.10
2018-04-14T06:42:41.929Z,4.30
2018-04-14T06:45:11.699Z,4.40
2018-04-14T06:47:40.451Z,4.40
2018-04-14T06:50:09.817Z,4.60
2018-04-14T06:52:38.634Z,4.60
2018-04-14T06:55:08.075Z,4.70
2018-04-14T06:57:36.868Z,4.70
2018-04-14T07:00:05.511Z,4.70
2018-04-14T07:02:35.106Z,4.70
2018-04-14T07:05:03.784Z,4.80
2018-04-14T07:07:34.036Z,4.90
2018-04-14T07:10:02.702Z,4.90
2018-04-14T07:12:31.015Z,5.00
2018-04-14T07:14:59.687Z,5.10
2018-04-14T07:17:28.350Z,5.30
2018-04-14T07:19:57.128Z,5.40
2018-04-14T07:22:26.223Z,5.40
2018-04-14T07:24:54.936Z,5.50
2018-04-14T07:27:23.598Z,5.60
2018-04-14T07:29:52.213Z,5.60
2018-04-14T07:32:20.888Z,5.60
2018-04-14T07:34:50.469Z,5.70
2018-04-14T07:37:19.060Z,5.70
2018-04-14T07:39:47.994Z,5.80
2018-04-14T07:42:16.683Z,5.80
2018-04-14T07:44:45.370Z,5.90
2018-04-14T07:47:14.309Z,6.10
2018-04-14T07:49:42.788Z,6.30
2018-04-14T07:52:11.679Z,6.30
2018-04-14T07:54:42.253Z,6.50
2018-04-14T07:57:11.021Z,6.50
2018-04-14T07:59:40.603Z,6.60
2018-04-14T08:02:10.927Z,6.70
2018-04-14T08:04:39.993Z,6.70
2018-04-14T08:07:08.639Z,6.80
2018-04-14T08:09:37.303Z,6.90
2018-04-14T08:12:06.820Z,7.10
2018-04-14T08:14:36.362Z,7.20
2018-04-14T08:17:05.003Z,7.20
2018-04-14T08:19:34.495Z,7.40
2018-04-14T08:22:03.282Z,7.40
2018-04-14T08:24:33.608Z,7.30
2018-04-14T08:27:02.223Z,7.30
2018-04-14T08:29:30.786Z,7.40
2018-04-14T08:31:59.256Z,7.40
2018-04-14T08:34:29.497Z,7.50
2018-04-14T08:36:59.492Z,7.60
2018-04-14T08:39:28.078Z,7.60
2018-04-14T08:41:56.860Z,7.70
2018-04-14T08:44:25.463Z,7.70
2018-04-14T08:46:55.052Z,7.90
2018-04-14T08:49:25.377Z,8.00
2018-04-14T08:51:53.961Z,8.00
2018-04-14T08:54:22.748Z,8.10
2018-04-14T08:56:51.346Z,8.30
2018-04-14T08:59:20.912Z,8.50
2018-04-14T09:01:49.623Z,8.50
2018-04-14T09:04:19.946Z,8.80
2018-04-14T09:06:48.631Z,8.80
2018-04-14T09:09:17.608Z,9.00
2018-04-14T09:11:46.417Z,9.10
2018-04-14T09:14:16.738Z,9.20
2018-04-14T09:16:45.426Z,9.20
2018-04-14T09:19:14.329Z,9.20
2018-04-14T09:21:42.951Z,9.20
2018-04-14T09:24:11.637Z,9.30
2018-04-14T09:26:40.241Z,9.40
2018-04-14T09:29:09.942Z,9.60
2018-04-14T09:31:39.345Z,9.60
2018-04-14T09:34:08.242Z,9.70
2018-04-14T09:36:37.780Z,9.70
2018-04-14T09:39:06.464Z,9.70
2018-04-14T09:41:35.525Z,9.80
2018-04-14T09:44:04.219Z,9.80
2018-04-14T09:46:33.341Z,9.80
2018-04-14T09:49:02.182Z,9.90
2018-04-14T09:51:32.216Z,10.20
2018-04-14T09:54:01.369Z,10.20
2018-04-14T09:56:30.107Z,10.30
2018-04-14T09:58:59.199Z,10.50
2018-04-14T10:01:28.121Z,10.50
2018-04-14T10:03:59.057Z,10.60
2018-04-14T10:06:28.122Z,10.60
2018-04-14T10:08:57.011Z,10.60
2018-04-14T10:11:25.845Z,10.70
2018-04-14T10:13:54.619Z,10.80
2018-04-14T10:16:23.884Z,10.90
2018-04-14T10:18:52.807Z,11.00
2018-04-14T10:21:21.855Z,11.00
2018-04-14T10:23:50.779Z,11.10
2018-04-14T10:26:19.692Z,11.30
2018-04-14T10:28:48.782Z,11.50
2018-04-14T10:31:17.638Z,11.60
2018-04-14T10:33:46.463Z,11.70
2018-04-14T10:36:15.648Z,11.80
2018-04-14T10:38:46.002Z,11.90
2018-04-14T10:41:14.937Z,12.10
2018-04-14T10:43:44.168Z,12.20
2018-04-14T10:46:13.166Z,12.40
2018-04-14T10:48:41.908Z,12.50
2018-04-14T10:51:11.048Z,12.60
2018-04-14T10:53:39.882Z,12.80
2018-04-14T10:56:08.824Z,12.90
2018-04-14T10:58:37.850Z,12.90
2018-04-14T11:01:06.894Z,13.00
2018-04-14T11:03:36.037Z,13.00
2018-04-14T11:06:05.177Z,13.10
2018-04-14T11:08:34.225Z,13.10
2018-04-14T11:11:02.912Z,13.20
2018-04-14T11:13:32.081Z,13.30
2018-04-14T11:16:01.022Z,13.40
2018-04-14T11:18:31.096Z,13.50
2018-04-14T11:21:00.028Z,13.50
2018-04-14T11:23:28.769Z,13.60
2018-04-14T11:25:58.788Z,14.00
2018-04-14T11:28:27.781Z,14.00
2018-04-14T11:30:57.322Z,14.10
2018-04-14T11:33:26.072Z,14.20
2018-04-14T11:35:55.079Z,14.20
2018-04-14T11:38:24.199Z,14.20
2018-04-14T11:40:53.361Z,14.20
2018-04-14T11:43:22.493Z,14.20
2018-04-14T11:45:51.924Z,14.20
2018-04-14T11:48:20.966Z,14.20
2018-04-14T11:50:50.152Z,14.20
2018-04-14T11:53:19.075Z,14.30
2018-04-14T11:55:48.692Z,14.40
2018-04-14T11:58:17.684Z,14.40
2018-04-14T12:00:46.425Z,14.50
2018-04-14T12:03:15.544Z,14.60
2018-04-14T12:05:44.721Z,14.60
2018-04-14T12:08:13.815Z,14.70
2018-04-14T12:10:42.818Z,14.70
2018-04-14T12:13:12.417Z,14.80
2018-04-14T12:15:41.485Z,14.70
2018-04-14T12:18:10.874Z,14.60
2018-04-14T12:20:39.636Z,14.60
2018-04-14T12:23:08.797Z,14.60
2018-04-14T12:25:37.822Z,14.60
2018-04-14T12:28:06.583Z,14.60
2018-04-14T12:30:35.482Z,14.60
2018-04-14T12:33:04.221Z,14.70
2018-04-14T12:35:32.939Z,14.80
2018-04-14T12:38:02.033Z,14.80
2018-04-14T12:43:07.707Z,14.90
2018-04-14T12:45:36.238Z,15.40
2018-04-14T12:48:04.798Z,16.00
2018-04-14T12:50:33.334Z,16.10
2018-04-14T12:53:02.399Z,16.00
2018-04-14T12:55:31.543Z,16.10
2018-04-14T12:58:00.602Z,16.10
2018-04-14T13:00:29.730Z,16.30
2018-04-14T13:02:58.391Z,16.20
2018-04-14T13:05:27.410Z,16.10
2018-04-14T13:07:57.328Z,15.90
2018-04-14T13:10:25.994Z,16.00
2018-04-14T13:12:54.710Z,16.20
2018-04-14T13:15:23.895Z,16.30
2018-04-14T13:17:52.992Z,16.20
2018-04-14T13:20:21.474Z,16.20
2018-04-14T13:22:50.098Z,16.10
2018-04-14T13:25:18.576Z,16.00
2018-04-14T13:27:47.067Z,16.00
2018-04-14T13:30:15.602Z,15.90
2018-04-14T13:32:44.257Z,15.80
2018-04-14T13:35:12.757Z,15.90
2018-04-14T13:37:41.248Z,16.00
2018-04-14T13:40:09.933Z,16.00
2018-04-14T13:42:38.462Z,16.10
2018-04-14T13:45:07.089Z,16.30
2018-04-14T13:47:38.675Z,16.40
2018-04-14T13:50:07.181Z,16.40
2018-04-14T13:52:35.656Z,16.60
2018-04-14T13:55:04.234Z,16.80
2018-04-14T13:57:32.728Z,16.90
2018-04-14T14:00:01.878Z,16.90
2018-04-14T14:02:31.001Z,16.90
2018-04-14T14:04:59.621Z,17.00
2018-04-14T14:07:28.383Z,17.20
2018-04-14T14:09:57.011Z,17.20
2018-04-14T14:12:25.486Z,17.10
2018-04-14T14:14:54.376Z,17.00
2018-04-14T14:17:22.889Z,16.90
2018-04-14T14:19:51.379Z,16.60
2018-04-14T14:22:19.995Z,16.60
2018-04-14T14:24:48.499Z,16.80
2018-04-14T14:27:17.165Z,16.70
2018-04-14T14:29:46.105Z,16.70
2018-04-14T14:32:14.606Z,16.90
2018-04-14T14:34:43.192Z,16.90
2018-04-14T14:37:11.795Z,16.70
2018-04-14T14:39:40.264Z,16.70
2018-04-14T14:42:08.802Z,17.00
2018-04-14T14:44:38.068Z,17.00
2018-04-14T14:47:07.607Z,17.00
2018-04-14T14:49:37.124Z,17.40
2018-04-14T14:52:05.604Z,17.40
2018-04-14T14:54:34.291Z,17.50
2018-04-14T14:57:02.789Z,17.30
2018-04-14T14:59:31.293Z,17.40
2018-04-14T15:01:59.788Z,17.70
2018-04-14T15:04:28.305Z,17.50
2018-04-14T15:06:56.898Z,17.60
2018-04-14T15:09:25.368Z,17.60
2018-04-14T15:11:54.760Z,17.70
2018-04-14T15:14:23.272Z,17.70
2018-04-14T15:16:51.930Z,17.70
2018-04-14T15:19:20.427Z,17.70
2018-04-14T15:21:49.322Z,17.70
2018-04-14T15:24:17.857Z,17.80
2018-04-14T15:26:46.382Z,17.80
2018-04-14T15:29:14.869Z,17.70
2018-04-14T15:31:43.372Z,17.80
2018-04-14T15:34:12.153Z,17.50
2018-04-14T15:36:41.420Z,17.50
2018-04-14T15:39:10.064Z,17.50
2018-04-14T15:41:38.577Z,17.40
2018-04-14T15:44:07.100Z,17.30
2018-04-14T15:46:35.674Z,17.30
2018-04-14T15:49:04.198Z,17.20
2018-04-14T15:51:32.856Z,17.30
2018-04-14T15:54:01.333Z,17.40
2018-04-14T15:56:29.840Z,17.50
2018-04-14T15:58:58.421Z,17.50
2018-04-14T16:01:27.472Z,17.50
2018-04-14T16:03:56.160Z,17.50
2018-04-14T16:06:24.689Z,17.50
2018-04-14T16:08:53.169Z,17.30
2018-04-14T16:11:22.133Z,17.30
2018-04-14T16:13:50.609Z,17.30
2018-04-14T16:16:19.107Z,17.30
2018-04-14T16:18:47.774Z,17.30
2018-04-14T16:21:16.282Z,17.40
2018-04-14T16:23:44.770Z,17.20
2018-04-14T16:26:13.289Z,17.30
2018-04-14T16:28:41.926Z,17.20
2018-04-14T16:31:10.441Z,17.30
2018-04-14T16:33:38.995Z,17.10
2018-04-14T16:36:07.492Z,16.90
2018-04-14T16:38:36.175Z,16.80
2018-04-14T16:41:04.702Z,16.70
2018-04-14T16:43:33.193Z,16.80
2018-04-14T16:46:01.752Z,16.70
2018-04-14T16:48:30.233Z,16.70
2018-04-14T16:50:58.747Z,16.70
2018-04-14T16:53:27.325Z,16.60
2018-04-14T16:55:55.954Z,16.60
2018-04-14T16:58:24.761Z,16.80
2018-04-14T17:00:53.424Z,16.80
2018-04-14T17:03:22.979Z,16.60
2018-04-14T17:05:51.863Z,16.40
2018-04-14T17:08:20.755Z,16.30
2018-04-14T17:10:49.241Z,16.20
2018-04-14T17:13:17.829Z,16.20
2018-04-14T17:15:46.313Z,16.20
2018-04-14T17:18:14.830Z,16.10
2018-04-14T17:20:43.317Z,16.20
2018-04-14T17:23:11.957Z,16.30
2018-04-14T17:25:40.621Z,16.10
2018-04-14T17:28:09.420Z,16.00
2018-04-14T17:30:38.111Z,15.90
2018-04-14T17:33:07.098Z,15.90
2018-04-14T17:35:35.893Z,16.00
2018-04-14T17:38:04.427Z,16.00
2018-04-14T17:40:32.996Z,15.90
2018-04-14T17:43:01.945Z,16.00
2018-04-14T17:45:31.043Z,15.80
2018-04-14T17:48:00.058Z,15.50
2018-04-14T17:50:28.820Z,15.40
2018-04-14T17:52:57.656Z,15.40
2018-04-14T17:55:26.527Z,15.40
2018-04-14T17:57:55.267Z,15.60
2018-04-14T18:00:23.972Z,15.60
2018-04-14T18:02:53.073Z,15.40
2018-04-14T18:05:21.752Z,15.10
2018-04-14T18:07:50.710Z,14.90
2018-04-14T18:10:19.535Z,14.90
2018-04-14T18:12:48.545Z,14.80
2018-04-14T18:15:17.725Z,14.60
2018-04-14T18:17:46.398Z,14.40
2018-04-14T18:20:15.110Z,14.20
2018-04-14T18:22:44.117Z,14.20
2018-04-14T18:25:12.830Z,14.00
2018-04-14T18:27:41.497Z,14.00
2018-04-14T18:30:10.015Z,14.00
2018-04-14T18:32:38.539Z,13.90
2018-04-14T18:35:07.620Z,13.90
2018-04-14T18:37:36.565Z,13.80
2018-04-14T18:40:05.383Z,13.90
2018-04-14T18:42:34.905Z,14.10
2018-04-14T18:45:03.520Z,14.10
2018-04-14T18:47:32.088Z,13.50
2018-04-14T18:50:00.961Z,13.30
2018-04-14T18:52:29.501Z,13.30
2018-04-14T18:54:58.006Z,13.10
2018-04-14T18:57:26.506Z,12.80
2018-04-14T18:59:55.296Z,12.60
2018-04-14T19:02:24.383Z,12.40
2018-04-14T19:04:53.081Z,12.30
2018-04-14T19:07:22.170Z,12.20
2018-04-14T19:09:50.913Z,12.40
2018-04-14T19:12:19.514Z,12.40
2018-04-14T19:14:48.232Z,12.30
2018-04-14T19:17:16.916Z,12.10
2018-04-14T19:19:45.876Z,12.10
2018-04-14T19:22:15.110Z,12.10
2018-04-14T19:24:43.599Z,12.10
2018-04-14T19:27:12.097Z,12.10
2018-04-14T19:29:40.591Z,12.10
2018-04-14T19:32:09.338Z,12.10
2018-04-14T19:34:38.126Z,12.00
2018-04-14T19:37:07.225Z,11.90
2018-04-14T19:39:36.168Z,11.80
2018-04-14T19:42:04.906Z,11.70
2018-04-14T19:44:33.573Z,11.60
2018-04-14T19:47:02.289Z,11.60
2018-04-14T19:49:31.064Z,11.50
2018-04-14T19:52:00.161Z,11.40
2018-04-14T19:54:28.721Z,11.30
2018-04-14T19:56:57.349Z,11.20
2018-04-14T19:59:25.851Z,11.20
2018-04-14T20:01:54.495Z,11.20
2018-04-14T20:04:23.507Z,11.10
2018-04-14T20:06:53.000Z,11.00
2018-04-14T20:09:21.692Z,10.90
2018-04-14T20:11:50.358Z,10.90
2018-04-14T20:14:19.025Z,11.00
2018-04-14T20:16:47.819Z,10.60
2018-04-14T20:19:16.517Z,10.40
2018-04-14T20:21:45.608Z,10.30
2018-04-14T20:24:14.156Z,10.30
2018-04-14T20:26:42.668Z,10.20
2018-04-14T20:29:12.050Z,9.90
2018-04-14T20:31:40.592Z,9.90
2018-04-14T20:34:09.064Z,9.90
2018-04-14T20:36:37.585Z,9.90
2018-04-14T20:39:06.620Z,9.90
2018-04-14T20:41:35.507Z,9.80
2018-04-14T20:44:04.581Z,9.80
2018-04-14T20:46:33.221Z,9.80
2018-04-14T20:49:02.385Z,9.80
2018-04-14T20:51:31.030Z,9.80
2018-04-14T20:54:00.072Z,9.70
2018-04-14T20:56:29.260Z,9.70
2018-04-14T20:58:57.773Z,9.60
2018-04-14T21:01:26.345Z,9.50
2018-04-14T21:03:54.822Z,9.40
2018-04-14T21:06:23.331Z,9.40
2018-04-14T21:08:51.804Z,9.30
2018-04-14T21:11:20.332Z,9.30
2018-04-14T21:13:48.806Z,9.30
2018-04-14T21:16:17.314Z,9.30
2018-04-14T21:18:45.865Z,9.10
2018-04-14T21:21:14.492Z,9.00
2018-04-14T21:23:43.113Z,8.80
2018-04-14T21:26:11.626Z,8.70
2018-04-14T21:28:40.125Z,8.60
2018-04-14T21:31:08.632Z,8.60
2018-04-14T21:33:37.163Z,8.60
2018-04-14T21:36:06.545Z,8.50
2018-04-14T21:38:35.044Z,8.40
2018-04-14T21:41:03.960Z,8.50
2018-04-14T21:43:33.056Z,8.30
2018-04-14T21:46:01.593Z,8.20
2018-04-14T21:48:30.126Z,8.10
2018-04-14T21:50:58.703Z,8.30
2018-04-14T21:53:27.652Z,8.50
2018-04-14T21:55:56.369Z,8.60
2018-04-14T21:58:25.086Z,8.50
2018-04-14T22:00:54.268Z,8.20
2018-04-14T22:03:23.364Z,8.20
2018-04-14T22:05:51.859Z,8.20
2018-04-14T22:08:20.414Z,8.30
2018-04-14T22:10:49.692Z,8.00
2018-04-14T22:13:18.976Z,7.90
2018-04-14T22:15:47.936Z,7.90
2018-04-14T22:18:16.642Z,7.80
2018-04-14T22:20:45.391Z,7.70
2018-04-14T22:23:14.380Z,7.60
2018-04-14T22:25:43.071Z,7.60
2018-04-14T22:28:11.856Z,7.50
2018-04-14T22:30:40.853Z,7.40
2018-04-14T22:33:09.839Z,7.30
2018-04-14T22:35:38.734Z,7.30
2018-04-14T22:38:07.417Z,7.40
2018-04-14T22:40:36.106Z,7.40
2018-04-14T22:43:05.201Z,7.40
2018-04-14T22:45:34.341Z,7.40
2018-04-14T22:48:03.296Z,7.40
2018-04-14T22:50:32.012Z,7.40
2018-04-14T22:53:00.708Z,7.40
2018-04-14T22:55:29.856Z,7.40
2018-04-14T22:57:58.949Z,7.40
2018-04-14T23:00:28.049Z,7.40
2018-04-14T23:02:57.144Z,7.30
2018-04-14T23:05:26.089Z,7.30
2018-04-14T23:07:54.805Z,7.30
2018-04-14T23:10:23.526Z,7.30
2018-04-14T23:12:52.296Z,7.20
2018-04-14T23:15:21.390Z,7.10
2018-04-14T23:17:50.375Z,7.10
2018-04-14T23:20:19.091Z,7.30
2018-04-14T23:22:47.760Z,7.40
2018-04-14T23:25:16.451Z,7.50
2018-04-14T23:27:45.914Z,7.40
2018-04-14T23:30:14.730Z,7.40
2018-04-14T23:32:43.671Z,7.30
2018-04-14T23:35:12.462Z,7.20
2018-04-14T23:37:41.196Z,7.30
2018-04-14T23:40:10.289Z,7.20
2018-04-14T23:42:38.979Z,7.20
2018-04-14T23:45:07.978Z,7.20
2018-04-14T23:47:37.022Z,7.20
2018-04-14T23:50:05.763Z,7.00
2018-04-14T23:52:34.855Z,7.10
2018-04-14T23:55:04.043Z,7.10
2018-04-14T23:57:33.038Z,7.20
